Time;durP1;ratioP1;P1;durP2;ratioP2;P2;SDS_P1;SDS_P2;PMS_P1;PMS_P2;Temp;Humidity;BMP_temperature;BMP_pressure;BME280_temperature;BME280_humidity;BME280_pressure;Samples;Min_cycle;Max_cycle;Signal;HPM_P1;HPM_P2
2023/04/02 00:01:00;;;;;;;5.13;1.40;;;;;;;-146.25;89.32;52473.63;2079990;28;35970;-68
2023/04/02 00:02:19;;;;;;;6.15;1.50;;;;;;;-146.25;87.78;52473.63;2071508;28;32859;-69
2023/04/02 00:03:21;;;;;;;3.90;0.98;;;;;;;-146.25;87.85;52489.84;2077933;28;20042;-68
2023/04/02 00:04:25;;;;;;;4.97;1.27;;;;;;;-146.25;87.34;52437.13;2071437;28;35659;-69
2023/04/02 00:05:50;;;;;;;4.10;1.27;;;;;;;-146.25;87.16;52497.97;2071707;28;36373;-68
2023/04/02 00:07:14;;;;;;;2.72;0.98;;;;;;;-146.25;86.83;52489.84;2080280;28;36493;-68
2023/04/02 00:08:39;;;;;;;6.00;1.48;;;;;;;-146.25;85.46;52469.56;2071278;28;41687;-68
2023/04/02 00:09:41;;;;;;;6.25;1.10;;;;;;;-146.25;86.04;52473.63;2069309;28;34624;-68
2023/04/02 00:11:00;;;;;;;4.18;1.08;;;;;;;-146.25;86.32;52489.84;2065521;28;36495;-68
2023/04/02 00:12:18;;;;;;;4.72;1.48;;;;;;;-146.25;86.98;52489.84;2074261;28;32914;-68
2023/04/02 00:13:30;;;;;;;3.25;0.98;;;;;;;-146.25;86.83;52475.66;2063382;28;35665;-68
2023/04/02 00:14:34;;;;;;;5.10;1.38;;;;;;;-146.25;87.35;52485.81;2067614;28;20137;-68
2023/04/02 00:15:44;;;;;;;5.60;1.10;;;;;;;-146.25;86.97;52485.81;2071032;28;36221;-68
2023/04/02 00:16:46;;;;;;;5.00;1.17;;;;;;;-146.25;87.12;52481.75;2073473;28;30118;-67
2023/04/02 00:17:48;;;;;;;3.75;1.20;;;;;;;-146.25;87.80;52455.38;2071346;28;34884;-68
2023/04/02 00:18:56;;;;;;;4.95;1.35;;;;;;;-146.25;88.21;52475.66;2071586;28;36514;-68
2023/04/02 00:20:06;;;;;;;5.15;1.38;;;;;;;-146.25;88.54;52453.34;2080491;28;32668;-67
2023/04/02 00:21:21;;;;;;;5.75;1.70;;;;;;;-146.25;89.17;52493.91;2071529;28;29828;-67
2023/04/02 00:22:33;;;;;;;5.13;1.60;;;;;;;-146.25;89.21;52431.06;2066328;28;31886;-68
2023/04/02 00:23:39;;;;;;;3.50;1.30;;;;;;;-146.25;89.35;52469.56;2074393;28;33918;-67
2023/04/02 00:24:41;;;;;;;5.60;1.58;;;;;;;-146.25;89.66;52461.47;2071044;28;38228;-68
2023/04/02 00:25:44;;;;;;;5.40;1.48;;;;;;;-146.25;88.76;52485.81;2071964;28;34686;-67
2023/04/02 00:26:52;;;;;;;4.10;1.42;;;;;;;-146.25;88.58;52506.06;2079702;28;33661;-67
2023/04/02 00:27:55;;;;;;;5.93;1.40;;;;;;;-146.25;88.13;52485.81;2071082;28;24420;-67
2023/04/02 00:29:05;;;;;;;5.30;1.80;;;;;;;-146.25;88.79;52512.16;2073308;28;20105;-68
2023/04/02 00:30:07;;;;;;;5.20;1.42;;;;;;;-146.25;88.48;52471.59;2080168;28;29685;-68
2023/04/02 00:31:11;;;;;;;2.85;1.10;;;;;;;-146.25;87.91;52479.72;2080538;28;20041;-67
2023/04/02 00:32:24;;;;;;;8.05;1.33;;;;;;;-146.25;87.42;52477.69;2072087;28;20879;-68
2023/04/02 00:33:30;;;;;;;2.97;1.17;;;;;;;-146.25;87.53;52504.03;2065418;28;28657;-67
2023/04/02 00:34:36;;;;;;;7.55;1.13;;;;;;;-146.25;87.47;52504.03;2073512;28;24250;-67
2023/04/02 00:35:38;;;;;;;3.10;1.23;;;;;;;-146.25;87.99;52475.66;2071264;28;36908;-67
2023/04/02 00:36:43;;;;;;;5.38;1.02;;;;;;;-146.25;88.35;52463.50;2063937;28;20046;-66
2023/04/02 00:37:45;;;;;;;5.40;1.25;;;;;;;-146.25;88.05;52475.66;2063551;28;34293;-66
2023/04/02 00:38:47;;;;;;;4.55;1.00;;;;;;;-146.25;88.39;52441.19;2072393;28;27833;-67
2023/04/02 00:40:18;;;;;;;4.25;1.30;;;;;;;-146.25;88.89;52465.53;2071531;28;20094;-66
2023/04/02 00:41:28;;;;;;;4.18;1.15;;;;;;;-146.25;88.73;52461.47;2070849;28;21383;-67
2023/04/02 00:42:30;;;;;;;4.35;1.35;;;;;;;-146.25;89.05;52469.56;2071939;28;20081;-67
2023/04/02 00:43:37;;;;;;;4.57;1.58;;;;;;;-146.25;88.50;52481.75;2064467;28;31197;-68
2023/04/02 00:44:44;;;;;;;7.28;1.50;;;;;;;-146.25;88.75;52483.78;2056465;28;21002;-66
2023/04/02 00:45:53;;;;;;;6.65;1.20;;;;;;;-146.25;89.39;52493.91;2063746;28;25861;-66
2023/04/02 00:46:57;;;;;;;3.25;1.20;;;;;;;-146.25;88.98;52483.78;2066711;28;20050;-66
2023/04/02 00:48:15;;;;;;;5.50;1.48;;;;;;;-146.25;89.70;52477.69;2071727;28;24948;-66
2023/04/02 00:49:40;;;;;;;4.50;1.40;;;;;;;-146.25;90.07;52489.84;2074734;28;25464;-67
2023/04/02 00:50:44;;;;;;;6.78;1.55;;;;;;;-146.25;90.38;52461.47;2080557;28;20038;-65
2023/04/02 00:51:52;;;;;;;6.47;1.30;;;;;;;-146.25;89.71;52481.75;2080144;28;29223;-67
2023/04/02 00:52:56;;;;;;;4.65;1.30;;;;;;;-146.25;89.53;52483.78;2080423;28;25115;-68
2023/04/02 00:54:04;;;;;;;4.45;1.45;;;;;;;-146.25;89.86;52481.75;2071433;28;30101;-67
2023/04/02 00:55:38;;;;;;;8.65;1.90;;;;;;;-146.25;90.67;52512.16;2073687;28;20047;-66
2023/04/02 00:56:45;;;;;;;4.05;1.20;;;;;;;-146.25;90.24;52471.59;2071450;28;20241;-66
2023/04/02 00:57:49;;;;;;;3.53;1.55;;;;;;;-146.25;90.57;52485.81;2074322;28;24074;-67
2023/04/02 00:58:55;;;;;;;5.90;1.13;;;;;;;-146.25;91.10;52489.84;2070907;28;33526;-66
2023/04/02 01:00:31;;;;;;;3.90;1.40;;;;;;;-146.25;90.84;52469.56;2063891;28;21143;-67
2023/04/02 01:01:36;;;;;;;5.03;1.25;;;;;;;-146.25;90.11;52465.53;2076258;28;35159;-67
2023/04/02 01:02:40;;;;;;;5.90;1.63;;;;;;;-146.25;90.38;52461.47;2080809;28;20862;-68
2023/04/02 01:03:52;;;;;;;6.28;1.33;;;;;;;-146.25;90.59;52481.75;2080207;28;28379;-66
2023/04/02 01:04:59;;;;;;;4.95;1.15;;;;;;;-146.25;90.95;52502.03;2080273;28;27483;-67
2023/04/02 01:06:10;;;;;;;5.60;1.25;;;;;;;-146.25;91.24;52495.94;2080321;28;27121;-67
2023/04/02 01:07:12;;;;;;;3.83;1.13;;;;;;;-146.25;90.87;52473.63;2080092;28;32597;-67
2023/04/02 01:08:32;;;;;;;7.72;1.60;;;;;;;-146.25;91.33;52471.59;2071594;28;20141;-66
2023/04/02 01:09:58;;;;;;;4.25;1.13;;;;;;;-146.25;91.15;52506.06;2074995;28;20191;-66
2023/04/02 01:11:41;;;;;;;7.65;0.98;;;;;;;-146.25;90.68;52477.69;2080692;28;20077;-67
2023/04/02 01:13:21;;;;;;;3.95;1.25;;;;;;;-146.25;91.33;52510.13;2046833;28;20980;-67
2023/04/02 01:15:03;;;;;;;2.70;0.80;;;;;;;-146.25;91.09;52497.97;2080276;28;29382;-67
2023/04/02 01:16:31;;;;;;;4.90;0.90;;;;;;;-146.25;91.14;52524.31;2080007;28;32912;-67
2023/04/02 01:17:58;;;;;;;5.45;1.13;;;;;;;-146.25;91.19;52473.63;2046614;28;32445;-67
2023/04/02 01:19:28;;;;;;;3.83;0.70;;;;;;;-146.25;91.72;52473.63;2071035;28;30436;-67
2023/04/02 01:20:40;;;;;;;;;;;;;;;-146.25;91.69;52457.41;2075845;28;30353;-66
2023/04/02 01:21:56;;;;;;;6.10;0.82;;;;;;;-146.25;91.67;52489.84;2080314;28;19934;-66
2023/04/02 01:23:13;;;;;;;2.72;0.80;;;;;;;-146.25;91.30;52481.75;2080725;28;20038;-67
2023/04/02 01:24:15;;;;;;;7.57;1.38;;;;;;;-146.25;91.46;52481.75;2071418;28;22253;-66
2023/04/02 01:25:27;;;;;;;5.05;1.30;;;;;;;-146.25;91.56;52461.47;2070824;28;34928;-67
2023/04/02 01:26:56;;;;;;;4.38;1.15;;;;;;;-146.25;91.31;52463.50;2071505;28;30357;-66
2023/04/02 01:28:21;;;;;;;5.57;1.05;;;;;;;-146.25;91.39;52489.84;2077377;28;20044;-66
2023/04/02 01:29:41;;;;;;;5.53;1.10;;;;;;;-146.25;91.75;52479.72;2071801;28;20047;-67
2023/04/02 01:30:46;;;;;;;6.78;1.20;;;;;;;-146.25;91.76;52461.47;2077206;28;24184;-67
2023/04/02 01:31:50;;;;;;;5.47;1.05;;;;;;;-146.25;91.55;52473.63;2063362;28;20046;-66
2023/04/02 01:32:53;;;;;;;8.38;1.55;;;;;;;-146.25;91.31;52481.75;2064635;28;20038;-67
2023/04/02 01:34:01;;;;;;;7.38;1.65;;;;;;;-146.25;91.40;52489.84;2080731;28;20045;-67
2023/04/02 01:35:03;;;;;;;5.53;1.25;;;;;;;-146.25;91.92;52465.53;2071692;28;20042;-67
2023/04/02 01:36:22;;;;;;;3.75;1.05;;;;;;;-146.25;91.61;52500.00;2064049;28;20719;-67
2023/04/02 01:37:48;;;;;;;6.38;1.60;;;;;;;-146.25;91.98;52477.69;2066300;28;20031;-67
2023/04/02 01:39:39;;;;;;;3.75;0.82;;;;;;;-146.25;91.87;52485.81;2076415;28;25932;-68
2023/04/02 01:41:10;;;;;;;4.43;0.98;;;;;;;-146.25;91.49;52471.59;2080366;28;24837;-68
2023/04/02 01:42:27;;;;;;;4.90;1.10;;;;;;;-146.25;91.85;52465.53;2071496;28;28913;-67
2023/04/02 01:43:41;;;;;;;5.60;1.10;;;;;;;-146.25;91.95;52522.28;2068067;28;20042;-67
2023/04/02 01:45:06;;;;;;;3.60;0.85;;;;;;;-146.25;92.05;52473.63;2064848;28;23034;-68
2023/04/02 01:46:31;;;;;;;4.43;0.82;;;;;;;-146.25;91.61;52510.13;2074653;28;32570;-66
2023/04/02 01:47:33;;;;;;;3.30;0.77;;;;;;;-146.25;91.95;52473.63;2071681;28;20117;-66
2023/04/02 01:48:34;;;;;;;5.28;1.13;;;;;;;-146.25;91.83;52493.91;2071514;28;20050;-68
2023/04/02 01:49:39;;;;;;;4.93;1.00;;;;;;;-146.25;92.21;52451.31;2079134;28;20038;-68
2023/04/02 01:50:43;;;;;;;4.95;1.13;;;;;;;-146.25;92.38;52491.88;2071435;28;23188;-64
2023/04/02 01:51:52;;;;;;;6.47;1.10;;;;;;;-146.25;91.96;52487.81;2071098;28;20169;-67
2023/04/02 01:52:58;;;;;;;6.03;0.93;;;;;;;-146.25;91.79;52455.38;2072896;28;20940;-67
2023/04/02 01:54:03;;;;;;;4.47;0.70;;;;;;;-146.25;92.03;52439.16;2071422;28;20148;-67
2023/04/02 01:55:14;;;;;;;5.32;1.00;;;;;;;-146.25;91.86;52465.53;2063795;28;23042;-67
2023/04/02 01:56:18;;;;;;;7.28;1.02;;;;;;;-146.25;92.16;52497.97;2072631;28;28355;-67
2023/04/02 01:57:21;;;;;;;7.05;1.38;;;;;;;-146.25;91.97;52502.03;2071067;28;20038;-67
2023/04/02 01:58:26;;;;;;;6.28;1.00;;;;;;;-146.25;91.70;52497.97;2071342;28;20038;-67
2023/04/02 01:59:32;;;;;;;6.35;0.95;;;;;;;-146.25;92.25;52447.28;2063459;28;20047;-67
2023/04/02 02:00:44;;;;;;;4.55;0.88;;;;;;;-146.25;92.31;52481.75;2064853;28;20193;-67
2023/04/02 02:02:00;;;;;;;6.10;0.98;;;;;;;-146.25;92.36;52449.31;2063506;28;20936;-67
2023/04/02 02:03:05;;;;;;;5.05;0.90;;;;;;;-146.25;92.11;52463.50;2066642;28;20050;-66
2023/04/02 02:04:13;;;;;;;4.32;0.85;;;;;;;-146.25;91.92;52449.31;2062954;28;20054;-67
2023/04/02 02:05:19;;;;;;;6.63;0.95;;;;;;;-146.25;91.76;52506.06;2056861;28;20837;-66
2023/04/02 02:06:23;;;;;;;4.45;0.90;;;;;;;-146.25;91.97;52491.88;2064138;28;20047;-66
2023/04/02 02:07:27;;;;;;;4.32;0.60;;;;;;;-146.25;91.85;52497.97;2071189;28;20050;-67
2023/04/02 02:08:46;;;;;;;7.03;0.98;;;;;;;-146.25;91.63;52489.84;2063432;28;20086;-66
2023/04/02 02:09:49;;;;;;;5.95;1.30;;;;;;;-146.25;91.40;52469.56;2065557;28;20800;-69
2023/04/02 02:10:50;;;;;;;6.35;0.70;;;;;;;-146.25;91.52;52455.38;2071006;28;30691;-67
2023/04/02 02:11:57;;;;;;;6.78;1.05;;;;;;;-146.25;91.80;52467.56;2071326;28;20077;-68
2023/04/02 02:13:00;;;;;;;3.88;0.70;;;;;;;-146.25;91.81;52463.50;2071100;28;33087;-67
2023/04/02 02:14:15;;;;;;;6.25;0.80;;;;;;;-146.25;92.07;52449.31;2054927;28;20821;-67
2023/04/02 02:15:22;;;;;;;3.67;0.63;;;;;;;-146.25;91.62;52467.56;2058922;28;20047;-66
2023/04/02 02:16:26;;;;;;;3.72;0.77;;;;;;;-146.25;91.67;52424.97;2063418;28;20056;-67
2023/04/02 02:17:33;;;;;;;7.53;0.90;;;;;;;-146.25;91.80;52481.75;2064206;28;20051;-64
2023/04/02 02:18:35;;;;;;;3.17;0.70;;;;;;;-146.25;91.80;52500.00;2063644;28;20108;-68
2023/04/02 02:19:43;;;;;;;9.57;1.05;;;;;;;-146.25;91.49;52473.63;2064371;28;23138;-66
2023/04/02 02:20:46;;;;;;;4.93;0.80;;;;;;;-146.25;91.90;52487.81;2070648;28;33609;-66
2023/04/02 02:22:30;;;;;;;3.15;0.55;;;;;;;-146.25;92.25;52451.31;2070751;28;29264;-67
2023/04/02 02:23:32;;;;;;;3.38;0.80;;;;;;;-146.25;92.03;52477.69;2058125;28;26978;-67
2023/04/02 02:24:41;;;;;;;5.95;0.60;;;;;;;-146.25;91.88;52475.66;2063131;28;33441;-67
2023/04/02 02:25:45;;;;;;;4.22;0.73;;;;;;;-146.25;91.34;52514.19;2063539;28;20046;-67
2023/04/02 02:26:57;;;;;;;3.47;0.50;;;;;;;-146.25;91.84;52473.63;2055243;28;20157;-67
2023/04/02 02:28:07;;;;;;;6.95;0.70;;;;;;;-146.25;91.43;52497.97;2057093;28;20046;-67
2023/04/02 02:29:15;;;;;;;3.20;0.45;;;;;;;-146.25;91.38;52489.84;2066250;28;20046;-67
2023/04/02 02:30:22;;;;;;;4.65;0.98;;;;;;;-146.25;91.79;52453.34;2069872;28;36209;-67
2023/04/02 02:31:32;;;;;;;4.45;0.63;;;;;;;-146.25;91.38;52473.63;2071004;28;20927;-66
2023/04/02 02:32:42;;;;;;;5.10;0.52;;;;;;;-146.25;91.72;52457.41;2062736;28;20042;-68
2023/04/02 02:33:57;;;;;;;3.65;0.60;;;;;;;-146.25;91.15;52479.72;2064369;28;20054;-69
2023/04/02 02:35:20;;;;;;;6.10;0.60;;;;;;;-146.25;91.45;52510.13;2071264;28;20038;-68
2023/04/02 02:36:29;;;;;;;5.38;0.93;;;;;;;-146.25;91.15;52487.81;2062893;28;20054;-68
2023/04/02 02:37:42;;;;;;;5.38;0.75;;;;;;;-146.25;91.11;52504.03;2063513;28;20047;-68
2023/04/02 02:38:59;;;;;;;5.22;0.55;;;;;;;-146.25;91.01;52467.56;2063040;28;20050;-67
2023/04/02 02:40:23;;;;;;;5.63;0.70;;;;;;;-146.25;90.96;52471.59;2066470;28;20831;-68
2023/04/02 02:42:01;;;;;;;4.30;0.60;;;;;;;-146.25;91.03;52477.69;2071343;28;20302;-67
2023/04/02 02:43:10;;;;;;;7.90;0.65;;;;;;;-146.25;90.54;52506.06;2071139;28;20121;-68
2023/04/02 02:44:22;;;;;;;6.35;0.80;;;;;;;-146.25;90.27;52489.84;2062647;28;20875;-66
2023/04/02 02:45:31;;;;;;;3.15;0.50;;;;;;;-146.25;90.13;52491.88;2063941;28;32928;-68
2023/04/02 02:46:40;;;;;;;6.43;0.60;;;;;;;-146.25;90.18;52477.69;2071300;28;20789;-67
2023/04/02 02:47:44;;;;;;;4.63;0.60;;;;;;;-146.25;89.93;52491.88;2054860;28;20039;-69
2023/04/02 02:48:47;;;;;;;2.08;0.60;;;;;;;-146.25;89.61;52465.53;2056230;28;20161;-66
2023/04/02 02:49:58;;;;;;;3.22;0.55;;;;;;;-146.25;89.47;52449.31;2063971;28;20046;-68
2023/04/02 02:51:10;;;;;;;5.00;0.63;;;;;;;-146.25;89.57;52487.81;2063550;28;20051;-69
2023/04/02 02:52:27;;;;;;;8.70;0.90;;;;;;;-146.25;88.98;52479.72;2065887;28;20046;-68
2023/04/02 02:53:45;;;;;;;2.45;0.52;;;;;;;-146.25;89.38;52473.63;2064248;28;20932;-68
2023/04/02 02:54:56;;;;;;;2.50;0.52;;;;;;;-146.25;89.33;52465.53;2056023;28;20035;-68
2023/04/02 02:56:03;;;;;;;7.07;0.70;;;;;;;-146.25;88.92;52461.47;2053416;28;20122;-68
2023/04/02 02:57:17;;;;;;;;;;;;;;;-146.25;89.18;52483.78;2065808;28;20046;-68
2023/04/02 02:58:31;;;;;;;4.97;0.45;;;;;;;-146.25;88.94;52463.50;2064368;28;19926;-68
2023/04/02 02:59:45;;;;;;;4.28;0.40;;;;;;;-146.25;89.75;52471.59;2067276;28;20042;-68
2023/04/02 03:00:47;;;;;;;6.50;0.70;;;;;;;-146.25;89.62;52485.81;2064096;28;20055;-68
2023/04/02 03:01:51;;;;;;;3.00;0.40;;;;;;;-146.25;88.79;52479.72;2064318;28;20049;-68
2023/04/02 03:02:56;;;;;;;3.75;0.60;;;;;;;-146.25;88.21;52483.78;2072540;28;20077;-68
2023/04/02 03:04:02;;;;;;;3.67;0.50;;;;;;;-146.25;88.06;52506.06;2055911;28;20043;-69
2023/04/02 03:05:06;;;;;;;5.90;0.50;;;;;;;-146.25;88.23;52467.56;2057783;28;20051;-68
2023/04/02 03:06:15;;;;;;;6.30;0.40;;;;;;;-146.25;88.31;52489.84;2064154;28;20162;-68
2023/04/02 03:07:24;;;;;;;4.10;0.50;;;;;;;-146.25;88.28;52451.31;2058117;28;20077;-68
2023/04/02 03:08:42;;;;;;;3.08;0.73;;;;;;;-146.25;87.88;52475.66;2058483;28;20226;-68
2023/04/02 03:10:15;;;;;;;5.97;0.50;;;;;;;-146.25;88.18;52487.81;2050590;28;20039;-68
2023/04/02 03:12:15;;;;;;;6.18;0.68;;;;;;;-146.25;88.48;52487.81;2056978;28;23547;-69
2023/04/02 03:13:35;;;;;;;4.75;0.60;;;;;;;-146.25;88.27;52493.91;2023650;29;20900;-68
2023/04/02 03:15:31;;;;;;;2.97;0.40;;;;;;;-146.25;87.72;52475.66;2039556;29;20151;-68
2023/04/02 03:16:44;;;;;;;5.68;0.50;;;;;;;-146.25;88.27;52465.53;2071818;28;20935;-67
2023/04/02 03:18:57;;;;;;;3.70;0.52;;;;;;;-146.25;87.70;52451.31;2064072;28;20047;-69
2023/04/02 03:20:37;;;;;;;3.78;0.40;;;;;;;-146.25;87.44;52487.81;2037211;29;20956;-68
2023/04/02 03:22:04;;;;;;;2.50;0.40;;;;;;;-146.25;87.20;52477.69;2061172;28;20058;-68
2023/04/02 03:23:22;;;;;;;3.38;0.30;;;;;;;-146.25;87.88;52483.78;2068541;28;20134;-67
2023/04/02 03:24:44;;;;;;;4.53;0.60;;;;;;;-146.25;87.39;52469.56;2066644;28;20477;-68
2023/04/02 03:26:17;;;;;;;2.72;0.45;;;;;;;-146.25;87.16;52473.63;2064238;28;20905;-68
2023/04/02 03:27:28;;;;;;;3.72;0.43;;;;;;;-146.25;87.33;52526.34;2060436;28;20113;-68
2023/04/02 03:28:38;;;;;;;3.38;0.30;;;;;;;-146.25;86.84;52467.56;2060128;28;20142;-68
2023/04/02 03:30:02;;;;;;;3.65;0.60;;;;;;;-146.25;87.30;52500.00;2065258;28;20213;-69
2023/04/02 03:31:31;;;;;;;5.20;0.30;;;;;;;-146.25;87.01;52477.69;2056150;28;20058;-67
2023/04/02 03:32:38;;;;;;;4.43;0.47;;;;;;;-146.25;86.83;52506.06;2066400;28;20890;-67
2023/04/02 03:33:53;;;;;;;5.90;0.40;;;;;;;-146.25;87.16;52489.84;2055997;28;20078;-68
2023/04/02 03:35:15;;;;;;;3.65;0.40;;;;;;;-146.25;86.86;52473.63;2052158;28;20118;-67
2023/04/02 03:36:19;;;;;;;5.18;0.63;;;;;;;-146.25;86.79;52483.78;2058763;28;20050;-67
2023/04/02 03:37:27;;;;;;;5.20;0.50;;;;;;;-146.25;86.98;52544.59;2064175;28;20966;-68
2023/04/02 03:38:35;;;;;;;3.78;0.30;;;;;;;-146.25;86.94;52473.63;2072229;28;26108;-68
2023/04/02 03:39:44;;;;;;;3.03;0.50;;;;;;;-146.25;87.31;52469.56;2071837;28;25361;-68
2023/04/02 03:41:02;;;;;;;4.38;0.50;;;;;;;-146.25;87.85;52467.56;2063943;28;20896;-67
2023/04/02 03:42:40;;;;;;;4.13;0.50;;;;;;;-146.25;87.52;52485.81;2058366;28;20097;-69
2023/04/02 03:43:47;;;;;;;3.95;0.52;;;;;;;-146.25;87.47;52502.03;2060778;28;20046;-69
2023/04/02 03:45:01;;;;;;;5.40;0.60;;;;;;;-146.25;87.63;52489.84;2056477;28;27019;-69
2023/04/02 03:46:29;;;;;;;5.15;0.52;;;;;;;-146.25;87.56;52514.19;2057946;28;20074;-67
2023/04/02 03:47:37;;;;;;;4.22;0.60;;;;;;;-146.25;87.88;52412.81;2059255;28;20097;-67
2023/04/02 03:48:58;;;;;;;3.45;0.50;;;;;;;-146.25;87.58;52469.56;2056913;28;20409;-68
2023/04/02 03:50:15;;;;;;;;;;;;;;;-146.25;87.86;52461.47;2067489;28;20053;-67
2023/04/02 03:51:49;;;;;;;4.10;0.45;;;;;;;-146.25;87.86;52506.06;2064113;28;20057;-67
2023/04/02 03:52:51;;;;;;;4.75;0.32;;;;;;;-146.25;87.96;52512.16;2059677;28;23778;-68
2023/04/02 03:53:55;;;;;;;4.47;0.77;;;;;;;-146.25;88.08;52445.25;2068554;28;20954;-68
2023/04/02 03:55:01;;;;;;;5.75;0.55;;;;;;;-146.25;88.53;52516.22;2072165;28;20069;-68
2023/04/02 03:56:05;;;;;;;5.70;0.40;;;;;;;-146.25;88.34;52463.50;2072036;28;20042;-68
2023/04/02 03:57:37;;;;;;;3.85;0.40;;;;;;;-146.25;87.81;52453.34;2072065;28;20925;-68
2023/04/02 03:58:46;;;;;;;5.00;0.50;;;;;;;-146.25;87.81;52477.69;2072016;28;20046;-66
2023/04/02 04:00:04;;;;;;;6.82;0.75;;;;;;;-146.25;88.41;52477.69;2072520;28;20035;-68
2023/04/02 04:01:34;;;;;;;2.53;0.55;;;;;;;-146.25;88.43;52465.53;2072368;28;20050;-69
2023/04/02 04:02:51;;;;;;;5.18;0.82;;;;;;;-146.25;88.53;52479.72;2071966;28;20051;-68
2023/04/02 04:04:09;;;;;;;5.05;0.52;;;;;;;-146.25;88.79;52463.50;2063537;28;20062;-68
2023/04/02 04:05:27;;;;;;;5.53;0.47;;;;;;;-146.25;88.71;52477.69;2064208;28;20161;-68
2023/04/02 04:06:33;;;;;;;5.55;0.40;;;;;;;-146.25;88.84;52495.94;2068482;28;20143;-68
2023/04/02 04:07:42;;;;;;;7.60;0.57;;;;;;;-146.25;89.11;52481.75;2072158;28;20041;-68
2023/04/02 04:08:53;;;;;;;5.22;0.50;;;;;;;-146.25;88.92;52447.28;2055476;28;28289;-69
2023/04/02 04:09:58;;;;;;;2.72;0.30;;;;;;;-146.25;88.94;52453.34;2059486;28;20035;-69
2023/04/02 04:11:08;;;;;;;6.97;0.40;;;;;;;-146.25;88.89;52485.81;2071684;28;31547;-69
2023/04/02 04:12:45;;;;;;;5.43;0.40;;;;;;;-146.25;89.16;52477.69;2064041;28;20971;-69
2023/04/02 04:14:11;;;;;;;3.80;0.68;;;;;;;-146.25;89.04;52469.56;2069137;28;20918;-69
2023/04/02 04:15:22;;;;;;;3.67;0.43;;;;;;;-146.25;89.24;52465.53;2063622;28;20185;-69
2023/04/02 04:16:38;;;;;;;4.55;0.30;;;;;;;-146.25;89.28;52485.81;2056896;28;20039;-69
2023/04/02 04:17:50;;;;;;;3.88;0.52;;;;;;;-146.25;89.32;52475.66;2066394;28;20198;-69
2023/04/02 04:19:06;;;;;;;3.10;0.30;;;;;;;-146.25;89.75;52453.34;2063986;28;20042;-69
2023/04/02 04:20:36;;;;;;;4.25;0.50;;;;;;;-146.25;89.92;52500.00;2057868;28;20643;-70
2023/04/02 04:21:38;;;;;;;6.28;0.52;;;;;;;-146.25;89.65;52479.72;2067053;28;30027;-69
2023/04/02 04:22:54;;;;;;;3.13;0.50;;;;;;;-146.25;89.16;52475.66;2063744;28;20956;-68
2023/04/02 04:24:05;;;;;;;4.47;0.35;;;;;;;-146.25;89.31;52495.94;2056739;28;20043;-70
2023/04/02 04:25:29;;;;;;;5.75;0.43;;;;;;;-146.25;88.94;52487.81;2063491;28;20832;-68
2023/04/02 04:26:52;;;;;;;3.83;0.30;;;;;;;-146.25;88.80;52512.16;2059200;28;20150;-70
2023/04/02 04:28:28;;;;;;;4.45;0.40;;;;;;;-146.25;89.12;52471.59;2050231;28;20225;-69
2023/04/02 04:30:04;;;;;;;6.03;0.40;;;;;;;-146.25;89.16;52447.28;2059308;28;20146;-70
2023/04/02 04:31:29;;;;;;;4.28;0.55;;;;;;;-146.25;88.76;52447.28;2068568;28;20042;-70
2023/04/02 04:32:37;;;;;;;6.82;0.50;;;;;;;-146.25;88.74;52489.84;2071799;28;20047;-70
2023/04/02 04:33:53;;;;;;;7.72;0.50;;;;;;;-146.25;88.57;52512.16;2071877;28;20046;-70
2023/04/02 04:35:28;;;;;;;4.82;0.60;;;;;;;-146.25;88.37;52469.56;2063551;28;20161;-70
2023/04/02 04:36:52;;;;;;;4.80;0.60;;;;;;;-146.25;88.08;52481.75;2058312;28;20051;-67
2023/04/02 04:38:13;;;;;;;4.22;0.40;;;;;;;-146.25;88.14;52485.81;2062731;28;20105;-69
2023/04/02 04:39:23;;;;;;;5.28;0.32;;;;;;;-146.25;88.45;52477.69;2066053;28;20054;-69
2023/04/02 04:40:33;;;;;;;4.15;0.47;;;;;;;-146.25;88.52;52495.94;2063834;28;20042;-69
2023/04/02 04:41:40;;;;;;;3.25;0.60;;;;;;;-146.25;88.27;52477.69;2055417;28;20090;-70
2023/04/02 04:42:44;;;;;;;6.40;0.30;;;;;;;-146.25;87.80;52483.78;2057839;28;20162;-70
2023/04/02 04:43:55;;;;;;;3.78;0.40;;;;;;;-146.25;87.89;52489.84;2063577;28;20047;-70
2023/04/02 04:45:37;;;;;;;3.05;0.30;;;;;;;-146.25;87.45;52477.69;2065206;28;23808;-70
2023/04/02 04:46:51;;;;;;;8.55;0.40;;;;;;;-146.25;87.04;52477.69;2064087;28;20089;-70
2023/04/02 04:48:15;;;;;;;4.38;0.30;;;;;;;-146.25;87.21;52463.50;2057427;28;20118;-70
2023/04/02 04:49:29;;;;;;;3.95;0.50;;;;;;;-146.25;86.67;52477.69;2058479;28;20058;-70
2023/04/02 04:50:52;;;;;;;5.70;0.50;;;;;;;-146.25;86.27;52508.09;2065325;28;20507;-70
2023/04/02 04:52:20;;;;;;;5.38;0.38;;;;;;;-146.25;86.71;52459.44;2063679;28;20122;-70
2023/04/02 04:53:26;;;;;;;7.57;0.70;;;;;;;-146.25;87.19;52493.91;2051657;28;20039;-70
2023/04/02 04:54:30;;;;;;;4.00;0.30;;;;;;;-146.25;86.96;52483.78;2063583;28;20074;-71
2023/04/02 04:55:47;;;;;;;3.85;0.40;;;;;;;-146.25;87.18;52471.59;2063775;28;20188;-70
2023/04/02 04:57:01;;;;;;;7.35;0.45;;;;;;;-146.25;87.25;52497.97;2071919;28;20051;-71
2023/04/02 04:58:24;;;;;;;5.30;0.50;;;;;;;-146.25;87.21;52459.44;2071745;28;20042;-71
2023/04/02 04:59:46;;;;;;;4.60;0.30;;;;;;;-146.25;87.08;52481.75;2070472;28;20089;-70
2023/04/02 05:01:39;;;;;;;2.33;0.30;;;;;;;-146.25;87.13;52439.16;2072005;28;20091;-70
2023/04/02 05:03:21;;;;;;;4.15;0.30;;;;;;;-146.25;87.32;52453.34;2065737;28;20058;-71
2023/04/02 05:04:37;;;;;;;6.63;0.65;;;;;;;-146.25;87.55;52491.88;2059541;28;20059;-70
2023/04/02 05:05:45;;;;;;;5.97;0.60;;;;;;;-146.25;87.73;52514.19;2057600;28;20126;-70
2023/04/02 05:07:08;;;;;;;5.95;0.40;;;;;;;-146.25;88.04;52506.06;2064097;28;20909;-71
2023/04/02 05:08:33;;;;;;;5.53;0.60;;;;;;;-146.25;88.17;52495.94;2063439;28;20047;-71
2023/04/02 05:10:20;;;;;;;3.75;0.77;;;;;;;-146.25;88.49;52467.56;2063610;28;20946;-72
2023/04/02 05:11:41;;;;;;;5.82;0.50;;;;;;;-146.25;88.71;52500.00;2061490;28;20794;-70
2023/04/02 05:13:00;;;;;;;5.75;0.70;;;;;;;-146.25;89.00;52473.63;2066237;28;20097;-71
2023/04/02 05:14:18;;;;;;;3.70;0.38;;;;;;;-146.25;89.14;52485.81;2054755;28;20849;-72
2023/04/02 05:15:22;;;;;;;5.20;0.30;;;;;;;-146.25;89.22;52475.66;2061369;28;20149;-72
2023/04/02 05:16:37;;;;;;;2.55;0.30;;;;;;;-146.25;89.15;52477.69;2062932;28;20925;-71
2023/04/02 05:17:55;;;;;;;5.28;0.40;;;;;;;-146.25;89.49;52514.19;2065619;28;20043;-72
2023/04/02 05:19:15;;;;;;;5.43;0.40;;;;;;;-146.25;89.97;52504.03;2063811;28;20801;-71
2023/04/02 05:20:36;;;;;;;5.00;0.40;;;;;;;-146.25;89.79;52504.03;2067671;28;20816;-72
2023/04/02 05:22:05;;;;;;;2.83;0.50;;;;;;;-146.25;90.06;52502.03;2071434;28;20037;-71
2023/04/02 05:23:28;;;;;;;2.85;0.35;;;;;;;-146.25;89.89;52465.53;2071772;28;20030;-72
2023/04/02 05:25:11;;;;;;;2.88;0.40;;;;;;;-146.25;89.07;52516.22;2064720;28;20035;-72
2023/04/02 05:26:22;;;;;;;6.00;0.30;;;;;;;-146.25;87.94;52542.56;2068855;28;20077;-71
2023/04/02 05:27:28;;;;;;;5.75;0.50;;;;;;;-146.25;86.46;52477.69;2063430;28;21002;-71
2023/04/02 05:29:01;;;;;;;4.13;0.30;;;;;;;-146.25;85.69;52504.03;2057679;28;20043;-71
2023/04/02 05:30:27;;;;;;;4.97;0.40;;;;;;;-146.25;84.42;52510.13;2058900;28;31702;-71
2023/04/02 05:31:42;;;;;;;2.72;0.30;;;;;;;-146.25;81.37;52558.78;2058821;28;20250;-71
2023/04/02 05:32:53;;;;;;;4.22;0.82;;;;;;;-146.25;80.14;52520.28;2063354;28;20042;-71
2023/04/02 05:33:55;;;;;;;3.60;0.38;;;;;;;-146.25;78.37;52520.28;2057842;28;20040;-71
2023/04/02 05:34:58;;;;;;;4.80;0.32;;;;;;;-146.25;77.55;52562.84;2063277;28;20058;-68
2023/04/02 05:36:11;;;;;;;3.13;0.65;;;;;;;-146.25;76.53;52518.25;2063234;28;20050;-71
2023/04/02 05:37:27;;;;;;;3.65;0.32;;;;;;;-146.25;74.64;52491.88;2064920;28;20051;-70
2023/04/02 05:38:37;;;;;;;1.80;0.22;;;;;;;-146.25;73.89;52520.28;2063353;28;20055;-70
2023/04/02 05:39:44;;;;;;;4.22;0.30;;;;;;;-146.25;73.30;52534.47;2056585;28;20189;-69
2023/04/02 05:40:57;;;;;;;3.97;0.30;;;;;;;-146.25;72.08;52510.13;2055896;28;20110;-69
2023/04/02 05:42:07;;;;;;;2.10;0.20;;;;;;;-146.25;70.66;52506.06;2054857;28;20829;-69
2023/04/02 05:43:24;;;;;;;2.42;0.35;;;;;;;-146.25;70.07;52542.56;2062678;28;20189;-69
2023/04/02 05:44:40;;;;;;;4.25;0.30;;;;;;;-146.25;67.50;52502.03;2055254;28;20054;-68